Temp: 9.3°C   Baro: 1005.8mb
  Wind: 2.9mph   Dir: SSW (199°)
  Rain: 0.2mm (0.0mm/hr)
  Sun: 0W/m2  Humidity: 93%

Historic data

Bath Spa Weather Station Historical Data
Daily Summary for October 3, 2022 Units:  Both    English   Metric
Daily Weekly Monthly Yearly Custom
  High: Low: Average:
Temperature: 64.8 °F /  18.2 °C 44.4 °F /  6.9 °C 54.6 °F /  12.6 °C
Dew Point: 55.6 °F /  13.1 °C 41.9 °F /  5.5 °C 49.8 °F /  9.9 °C
Humidity: 93% 68% 84%
Wind Speed: 7.5mph /  12.1km/h - 1.7mph /  2.7km/h
Wind Gust: 13mph /  20.9km/h - -
Wind- - SSE
Pressure: 30.35 in /  1027.7 hPa 30.13 in /  1020.2 hPa -
Precipitation: 0.00 in /  0 mm    
Historical Graphs
 
 
Tabular Data for October 3, 2022
Time Temperature Dew Point Pressure Wind Wind Speed Wind Gust Humidity Rainfall Rate (Hourly) solar
00:09 47.3 °F /  8.5 °C 44.2 °F /  6.8 °C 30.33in /  1027hPa Calm   1mph /  1.6km/h 89% 0.00in /  0mm 0 W/m2
00:14 47.1 °F /  8.4 °C 44.1 °F /  6.7 °C 30.33in /  1027hPa Calm     89% 0.00in /  0mm 0 W/m2
00:19 46.9 °F /  8.3 °C 43.9 °F /  6.6 °C 30.33in /  1027hPa Calm     89% 0.00in /  0mm 0 W/m2
00:24 46.9 °F /  8.3 °C 43.9 °F /  6.6 °C 30.33in /  1027hPa Calm   1mph /  1.6km/h 89% 0.00in /  0mm 0 W/m2
00:29 46.9 °F /  8.3 °C 43.8 °F /  6.6 °C 30.33in /  1027hPa Calm   1mph /  1.6km/h 89% 0.00in /  0mm 0 W/m2
00:34 46.8 °F /  8.2 °C 43.7 °F /  6.5 °C 30.34in /  1027.3hPa Calm     89% 0.00in /  0mm 0 W/m2
00:39 46.6 °F /  8.1 °C 43.6 °F /  6.4 °C 30.34in /  1027.3hPa Calm     89.2% 0.00in /  0mm 0 W/m2
00:44 46.5 °F /  8.1 °C 43.5 °F /  6.4 °C 30.34in /  1027.3hPa Calm   1mph /  1.6km/h 89.4% 0.00in /  0mm 0 W/m2
00:49 46.4 °F /  8 °C 43.7 °F /  6.5 °C 30.34in /  1027.3hPa Calm   1mph /  1.6km/h 90% 0.00in /  0mm 0 W/m2
00:54 46.2 °F /  7.9 °C 43.5 °F /  6.4 °C 30.34in /  1027.3hPa Calm     90% 0.00in /  0mm 0 W/m2
00:59 46.2 °F /  7.9 °C 43.5 °F /  6.4 °C 30.34in /  1027.3hPa Calm     90% 0.00in /  0mm 0 W/m2
01:04 46.2 °F /  7.9 °C 43.5 °F /  6.4 °C 30.34in /  1027.3hPa Calm     90% 0.00in /  0mm 0 W/m2
01:09 46 °F /  7.8 °C 43.3 °F /  6.3 °C 30.34in /  1027.3hPa Calm     90% 0.00in /  0mm 0 W/m2
01:14 45.9 °F /  7.7 °C 43.2 °F /  6.2 °C 30.34in /  1027.3hPa Calm     90% 0.00in /  0mm 0 W/m2
01:19 45.9 °F /  7.7 °C 43.2 °F /  6.2 °C 30.34in /  1027.3hPa Calm     90% 0.00in /  0mm 0 W/m2
01:24 45.7 °F /  7.6 °C 43 °F /  6.1 °C 30.34in /  1027.3hPa Calm     90% 0.00in /  0mm 0 W/m2
01:29 45.7 °F /  7.6 °C 43 °F /  6.1 °C 30.34in /  1027.3hPa Calm     90% 0.00in /  0mm 0 W/m2
01:34 45.4 °F /  7.4 °C 42.7 °F /  5.9 °C 30.34in /  1027.3hPa Calm     90% 0.00in /  0mm 0 W/m2
01:39 45.3 °F /  7.4 °C 42.6 °F /  5.9 °C 30.34in /  1027.3hPa Calm     90% 0.00in /  0mm 0 W/m2
01:44 45.3 °F /  7.4 °C 42.8 °F /  6 °C 30.34in /  1027.3hPa Calm     90.8% 0.00in /  0mm 0 W/m2
01:49 45.2 °F /  7.3 °C 42.7 °F /  5.9 °C 30.34in /  1027.3hPa Calm     91% 0.00in /  0mm 0 W/m2
01:54 45.1 °F /  7.3 °C 42.6 °F /  5.9 °C 30.34in /  1027.3hPa Calm     91% 0.00in /  0mm 0 W/m2
01:59 45 °F /  7.2 °C 42.4 °F /  5.8 °C 30.35in /  1027.7hPa Calm     91% 0.00in /  0mm 0 W/m2
02:04 45 °F /  7.2 °C 42.4 °F /  5.8 °C 30.34in /  1027.3hPa Calm     91% 0.00in /  0mm 0 W/m2
02:09 45 °F /  7.2 °C 42.4 °F /  5.8 °C 30.35in /  1027.7hPa Calm     91% 0.00in /  0mm 0 W/m2
02:14 45 °F /  7.2 °C 42.5 °F /  5.8 °C 30.34in /  1027.3hPa Calm     91% 0.00in /  0mm 0 W/m2
02:19 45 °F /  7.2 °C 42.4 °F /  5.8 °C 30.34in /  1027.3hPa Calm     91% 0.00in /  0mm 0 W/m2
02:24 45 °F /  7.2 °C 42.4 °F /  5.8 °C 30.35in /  1027.7hPa Calm     91% 0.00in /  0mm 0 W/m2
02:29 45 °F /  7.2 °C 42.4 °F /  5.8 °C 30.34in /  1027.3hPa Calm     91% 0.00in /  0mm 0 W/m2
02:34 44.9 °F /  7.2 °C 42.4 °F /  5.8 °C 30.34in /  1027.3hPa Calm     91% 0.00in /  0mm 0 W/m2
02:39 44.8 °F /  7.1 °C 42.3 °F /  5.7 °C 30.34in /  1027.3hPa Calm     91% 0.00in /  0mm 0 W/m2
02:44 44.8 °F /  7.1 °C 42.3 °F /  5.7 °C 30.34in /  1027.3hPa Calm     91% 0.00in /  0mm 0 W/m2
02:49 44.8 °F /  7.1 °C 42.3 °F /  5.7 °C 30.34in /  1027.3hPa Calm     91% 0.00in /  0mm 0 W/m2
02:54 44.6 °F /  7 °C 42.1 °F /  5.6 °C 30.34in /  1027.3hPa Calm     91% 0.00in /  0mm 0 W/m2
02:59 44.4 °F /  6.9 °C 41.9 °F /  5.5 °C 30.34in /  1027.3hPa Calm     91% 0.00in /  0mm 0 W/m2
03:04 44.4 °F /  6.9 °C 41.9 °F /  5.5 °C 30.34in /  1027.3hPa Calm     91% 0.00in /  0mm 0 W/m2
03:09 44.4 °F /  6.9 °C 41.9 °F /  5.5 °C 30.34in /  1027.3hPa Calm     91% 0.00in /  0mm 0 W/m2
03:14 44.4 °F /  6.9 °C 41.9 °F /  5.5 °C 30.34in /  1027.3hPa Calm     91% 0.00in /  0mm 0 W/m2
03:19 44.5 °F /  6.9 °C 42.1 °F /  5.6 °C 30.34in /  1027.3hPa Calm     91.4% 0.00in /  0mm 0 W/m2
03:24 44.6 °F /  7 °C 42.4 °F /  5.8 °C 30.34in /  1027.3hPa Calm     92% 0.00in /  0mm 0 W/m2
03:29 44.6 °F /  7 °C 42.4 °F /  5.8 °C 30.34in /  1027.3hPa Calm     92% 0.00in /  0mm 0 W/m2
03:34 44.6 °F /  7 °C 42.4 °F /  5.8 °C 30.34in /  1027.3hPa Calm     92% 0.00in /  0mm 0 W/m2
03:39 44.6 °F /  7 °C 42.4 °F /  5.8 °C 30.34in /  1027.3hPa Calm     92% 0.00in /  0mm 0 W/m2
03:44 44.8 °F /  7.1 °C 42.6 °F /  5.9 °C 30.34in /  1027.3hPa Calm     92% 0.00in /  0mm 0 W/m2
03:49 44.8 °F /  7.1 °C 42.6 °F /  5.9 °C 30.34in /  1027.3hPa Calm     92% 0.00in /  0mm 0 W/m2
03:54 44.8 °F /  7.1 °C 42.6 °F /  5.9 °C 30.33in /  1027hPa Calm     92% 0.00in /  0mm 0 W/m2
03:59 45 °F /  7.2 °C 42.8 °F /  6 °C 30.33in /  1027hPa Calm     92% 0.00in /  0mm 0 W/m2
04:04 45 °F /  7.2 °C 42.8 °F /  6 °C 30.33in /  1027hPa Calm     92% 0.00in /  0mm 0 W/m2
04:09 45 °F /  7.2 °C 42.8 °F /  6 °C 30.33in /  1027hPa Calm     92% 0.00in /  0mm 0 W/m2
04:14 45 °F /  7.2 °C 42.8 °F /  6 °C 30.33in /  1027hPa Calm     92% 0.00in /  0mm 0 W/m2
04:19 45 °F /  7.2 °C 42.8 °F /  6 °C 30.32in /  1026.6hPa Calm     92% 0.00in /  0mm 0 W/m2
04:24 45 °F /  7.2 °C 42.8 °F /  6 °C 30.32in /  1026.6hPa Calm     92% 0.00in /  0mm 0 W/m2
04:29 45 °F /  7.2 °C 42.9 °F /  6.1 °C 30.32in /  1026.6hPa Calm     92% 0.00in /  0mm 0 W/m2
04:34 45.1 °F /  7.3 °C 43 °F /  6.1 °C 30.32in /  1026.6hPa Calm     92% 0.00in /  0mm 0 W/m2
04:39 45 °F /  7.2 °C 42.8 °F /  6 °C 30.32in /  1026.6hPa Calm     92% 0.00in /  0mm 0 W/m2
04:44 45.1 °F /  7.3 °C 43 °F /  6.1 °C 30.32in /  1026.6hPa Calm     92% 0.00in /  0mm 0 W/m2
04:49 45.1 °F /  7.3 °C 43 °F /  6.1 °C 30.33in /  1027hPa Calm     92% 0.00in /  0mm 0 W/m2
04:54 45.1 °F /  7.3 °C 43 °F /  6.1 °C 30.33in /  1027hPa Calm     92% 0.00in /  0mm 0 W/m2
04:59 45.1 °F /  7.3 °C 43 °F /  6.1 °C 30.33in /  1027hPa Calm     92% 0.00in /  0mm 0 W/m2
05:04 45.1 °F /  7.3 °C 42.9 °F /  6.1 °C 30.33in /  1027hPa Calm     92% 0.00in /  0mm 0 W/m2
05:09 45 °F /  7.2 °C 42.8 °F /  6 °C 30.33in /  1027hPa Calm     92% 0.00in /  0mm 0 W/m2
05:14 45 °F /  7.2 °C 42.8 °F /  6 °C 30.33in /  1027hPa Calm     92% 0.00in /  0mm 0 W/m2
05:19 45 °F /  7.2 °C 42.8 °F /  6 °C 30.32in /  1026.6hPa Calm     92% 0.00in /  0mm 0 W/m2
05:24 45 °F /  7.2 °C 42.8 °F /  6 °C 30.33in /  1027hPa Calm     92% 0.00in /  0mm 0 W/m2
05:29 45 °F /  7.2 °C 42.8 °F /  6 °C 30.32in /  1026.6hPa Calm     92% 0.00in /  0mm 0 W/m2
05:34 45 °F /  7.2 °C 42.8 °F /  6 °C 30.32in /  1026.6hPa Calm     92% 0.00in /  0mm 0 W/m2
05:39 45 °F /  7.2 °C 42.8 °F /  6 °C 30.32in /  1026.6hPa Calm     92% 0.00in /  0mm 0 W/m2
05:44 45 °F /  7.2 °C 42.8 °F /  6 °C 30.32in /  1026.6hPa Calm     92% 0.00in /  0mm 0 W/m2
05:49 44.9 °F /  7.2 °C 42.7 °F /  5.9 °C 30.32in /  1026.6hPa Calm     92% 0.00in /  0mm 0 W/m2
05:54 44.8 °F /  7.1 °C 42.6 °F /  5.9 °C 30.32in /  1026.6hPa Calm     92% 0.00in /  0mm 0 W/m2
05:59 44.8 °F /  7.1 °C 42.6 °F /  5.9 °C 30.32in /  1026.6hPa Calm     92% 0.00in /  0mm 0 W/m2
06:04 44.8 °F /  7.1 °C 42.6 °F /  5.9 °C 30.32in /  1026.6hPa Calm     92% 0.00in /  0mm 0 W/m2
06:09 44.8 °F /  7.1 °C 42.6 °F /  5.9 °C 30.32in /  1026.6hPa Calm     92% 0.00in /  0mm 0 W/m2
06:14 44.8 °F /  7.1 °C 42.6 °F /  5.9 °C 30.32in /  1026.6hPa Calm     92% 0.00in /  0mm 0 W/m2
06:19 44.8 °F /  7.1 °C 42.6 °F /  5.9 °C 30.32in /  1026.6hPa Calm     92% 0.00in /  0mm 0 W/m2
06:24 45 °F /  7.2 °C 42.8 °F /  6 °C 30.32in /  1026.6hPa Calm     92% 0.00in /  0mm 0 W/m2
06:29 45 °F /  7.2 °C 42.8 °F /  6 °C 30.32in /  1026.6hPa Calm     92% 0.00in /  0mm 0 W/m2
06:34 44.8 °F /  7.1 °C 42.6 °F /  5.9 °C 30.32in /  1026.6hPa Calm     92% 0.00in /  0mm 0 W/m2
06:39 44.9 °F /  7.2 °C 42.8 °F /  6 °C 30.32in /  1026.6hPa Calm     92.2% 0.00in /  0mm 0 W/m2
06:44 45 °F /  7.2 °C 42.8 °F /  6 °C 30.32in /  1026.6hPa Calm     92% 0.00in /  0mm 0 W/m2
06:49 45 °F /  7.2 °C 42.8 °F /  6 °C 30.32in /  1026.6hPa Calm     92% 0.00in /  0mm 0 W/m2
06:54 45 °F /  7.2 °C 42.8 °F /  6 °C 30.32in /  1026.6hPa Calm     92% 0.00in /  0mm 0 W/m2
06:59 45 °F /  7.2 °C 42.8 °F /  6 °C 30.32in /  1026.6hPa Calm     92% 0.00in /  0mm 0 W/m2
07:04 45.1 °F /  7.3 °C 43 °F /  6.1 °C 30.32in /  1026.6hPa Calm     92.2% 0.00in /  0mm 0 W/m2
07:09 45.5 °F /  7.5 °C 43.5 °F /  6.4 °C 30.32in /  1026.6hPa Calm     93% 0.00in /  0mm 0 W/m2
07:14 45.9 °F /  7.7 °C 43.9 °F /  6.6 °C 30.32in /  1026.6hPa Calm     93% 0.00in /  0mm 0 W/m2
07:19 46.6 °F /  8.1 °C 44.6 °F /  7 °C 30.32in /  1026.6hPa Calm     93% 0.00in /  0mm 0 W/m2
07:24 47 °F /  8.3 °C 45.1 °F /  7.3 °C 30.32in /  1026.6hPa Calm     93% 0.00in /  0mm 5 W/m2
07:29 46.7 °F /  8.2 °C 44.7 °F /  7.1 °C 30.32in /  1026.6hPa Calm     93% 0.00in /  0mm 9 W/m2
07:34 46.7 °F /  8.2 °C 44.7 °F /  7.1 °C 30.31in /  1026.3hPa Calm     93% 0.00in /  0mm 12 W/m2
07:39 47.4 °F /  8.6 °C 45.4 °F /  7.4 °C 30.31in /  1026.3hPa Calm     93% 0.00in /  0mm 14 W/m2
07:44 47.4 °F /  8.6 °C 45.4 °F /  7.4 °C 30.32in /  1026.6hPa Calm     93% 0.00in /  0mm 14 W/m2
07:49 47 °F /  8.3 °C 45 °F /  7.2 °C 30.32in /  1026.6hPa Calm     92.8% 0.00in /  0mm 19 W/m2
07:54 47.1 °F /  8.4 °C 45 °F /  7.2 °C 30.32in /  1026.6hPa Calm     92.2% 0.00in /  0mm 19 W/m2
07:59 46.9 °F /  8.3 °C 44.8 °F /  7.1 °C 30.32in /  1026.6hPa Calm     92% 0.00in /  0mm 19 W/m2
08:04 46.9 °F /  8.3 °C 44.8 °F /  7.1 °C 30.31in /  1026.3hPa Calm     92% 0.00in /  0mm 25 W/m2
08:09 47.1 °F /  8.4 °C 45 °F /  7.2 °C 30.32in /  1026.6hPa Calm     92% 0.00in /  0mm 32 W/m2
08:14 47.2 °F /  8.4 °C 45 °F /  7.2 °C 30.32in /  1026.6hPa Calm     92% 0.00in /  0mm 42 W/m2
08:19 47.3 °F /  8.5 °C 45.1 °F /  7.3 °C 30.32in /  1026.6hPa Calm     92% 0.00in /  0mm 49 W/m2
08:24 47.6 °F /  8.7 °C 45.4 °F /  7.4 °C 30.32in /  1026.6hPa Calm     92% 0.00in /  0mm 58 W/m2
08:29 48.4 °F /  9.1 °C 46.2 °F /  7.9 °C 30.32in /  1026.6hPa Calm     92% 0.00in /  0mm 65 W/m2
08:34 48.9 °F /  9.4 °C 46.8 °F /  8.2 °C 30.32in /  1026.6hPa Calm     92% 0.00in /  0mm 76 W/m2
08:39 48.6 °F /  9.2 °C 46.4 °F /  8 °C 30.32in /  1026.6hPa Calm     92% 0.00in /  0mm 88 W/m2
08:44 48.6 °F /  9.2 °C 46.4 °F /  8 °C 30.32in /  1026.6hPa Calm     92% 0.00in /  0mm 88 W/m2
08:49 48.7 °F /  9.3 °C 46.3 °F /  7.9 °C 30.32in /  1026.6hPa Calm     91.4% 0.00in /  0mm 90 W/m2
08:54 48.8 °F /  9.3 °C 46.3 °F /  7.9 °C 30.32in /  1026.6hPa Calm     91% 0.00in /  0mm 88 W/m2
08:59 48.6 °F /  9.2 °C 46 °F /  7.8 °C 30.32in /  1026.6hPa Calm     91% 0.00in /  0mm 88 W/m2
09:04 48.7 °F /  9.3 °C 46.2 °F /  7.9 °C 30.32in /  1026.6hPa Calm     91% 0.00in /  0mm 102 W/m2
09:09 48.8 °F /  9.3 °C 46.3 °F /  7.9 °C 30.32in /  1026.6hPa Calm     91% 0.00in /  0mm 132 W/m2
09:14 49.4 °F /  9.7 °C 46.6 °F /  8.1 °C 30.32in /  1026.6hPa Calm     90.4% 0.00in /  0mm 139 W/m2
09:19 49.8 °F /  9.9 °C 47 °F /  8.3 °C 30.32in /  1026.6hPa Calm     90% 0.00in /  0mm 137 W/m2
09:24 50.3 °F /  10.2 °C 47.4 °F /  8.6 °C 30.32in /  1026.6hPa Calm     90% 0.00in /  0mm 137 W/m2
09:29 50.5 °F /  10.3 °C 47.6 °F /  8.7 °C 30.32in /  1026.6hPa Calm     89.6% 0.00in /  0mm 130 W/m2
09:34 50.7 °F /  10.4 °C 47.7 °F /  8.7 °C 30.32in /  1026.6hPa Calm     89% 0.00in /  0mm 132 W/m2
09:39 51.1 °F /  10.6 °C 48 °F /  8.9 °C 30.32in /  1026.6hPa Calm     88.8% 0.00in /  0mm 139 W/m2
09:44 51.5 °F /  10.8 °C 48.1 °F /  8.9 °C 30.32in /  1026.6hPa Calm     88% 0.00in /  0mm 156 W/m2
09:49 51.8 °F /  11 °C 48.1 °F /  8.9 °C 30.32in /  1026.6hPa Calm     87.2% 0.00in /  0mm 179 W/m2
09:54 52 °F /  11.1 °C 48 °F /  8.9 °C 30.32in /  1026.6hPa Calm     86.6% 0.00in /  0mm 199 W/m2
09:59 52.1 °F /  11.2 °C 47.9 °F /  8.8 °C 30.32in /  1026.6hPa Calm     86% 0.00in /  0mm 220 W/m2
10:04 52.5 °F /  11.4 °C 48.4 °F /  9.1 °C 30.32in /  1026.6hPa Calm     86% 0.00in /  0mm 320 W/m2
10:09 53.4 °F /  11.9 °C 49.2 °F /  9.6 °C 30.32in /  1026.6hPa Calm     85.4% 0.00in /  0mm 373 W/m2
10:14 54.5 °F /  12.5 °C 50.1 °F /  10.1 °C 30.32in /  1026.6hPa Calm     85.2% 0.00in /  0mm 415 W/m2
10:19 54.9 °F /  12.7 °C 50.1 °F /  10.1 °C 30.32in /  1026.6hPa Calm     83.6% 0.00in /  0mm 399 W/m2
10:24 55.4 °F /  13 °C 50.3 °F /  10.2 °C 30.32in /  1026.6hPa Calm     83% 0.00in /  0mm 446 W/m2
10:29 55.9 °F /  13.3 °C 50.5 °F /  10.3 °C 30.32in /  1026.6hPa Calm     82% 0.00in /  0mm 408 W/m2
10:34 56.7 °F /  13.7 °C 51.3 °F /  10.7 °C 30.32in /  1026.6hPa Calm     82% 0.00in /  0mm 378 W/m2
10:39 57.4 °F /  14.1 °C 51.6 °F /  10.9 °C 30.32in /  1026.6hPa Calm     80.8% 0.00in /  0mm 250 W/m2
10:44 57.5 °F /  14.2 °C 51.4 °F /  10.8 °C 30.32in /  1026.6hPa Calm     80.2% 0.00in /  0mm 236 W/m2
10:49 58 °F /  14.4 °C 51.9 °F /  11.1 °C 30.32in /  1026.6hPa Calm     80% 0.00in /  0mm 225 W/m2
10:54 58.5 °F /  14.7 °C 52.2 °F /  11.2 °C 30.32in /  1026.6hPa Calm     79.6% 0.00in /  0mm 239 W/m2
10:59 58.3 °F /  14.6 °C 51.8 °F /  11 °C 30.32in /  1026.6hPa Calm     79% 0.00in /  0mm 239 W/m2
11:04 58 °F /  14.4 °C 51.5 °F /  10.8 °C 30.32in /  1026.6hPa Calm     79% 0.00in /  0mm 214 W/m2
11:09 58 °F /  14.4 °C 51.5 °F /  10.8 °C 30.32in /  1026.6hPa Calm     79% 0.00in /  0mm 221 W/m2
11:14 58 °F /  14.4 °C 51.7 °F /  10.9 °C 30.32in /  1026.6hPa Calm     79.5% 0.00in /  0mm 223 W/m2
11:19 58.3 °F /  14.6 °C 52.2 °F /  11.2 °C 30.32in /  1026.6hPa Calm     80% 0.00in /  0mm 258 W/m2
11:24 58.3 °F /  14.6 °C 52.2 °F /  11.2 °C 30.32in /  1026.6hPa Calm     80% 0.00in /  0mm 257 W/m2
11:29 58.5 °F /  14.7 °C 52.5 °F /  11.4 °C 30.31in /  1026.3hPa Calm     80.4% 0.00in /  0mm 288 W/m2
11:34 59.3 °F /  15.2 °C 53.4 °F /  11.9 °C 30.31in /  1026.3hPa Calm     80.8% 0.00in /  0mm 359 W/m2
11:39 59.6 °F /  15.3 °C 53.3 °F /  11.8 °C 30.31in /  1026.3hPa ESE 1.6mph /  2.6km/h 3mph /  4.8km/h 79.4% 0.00in /  0mm 348 W/m2
11:44 59.8 °F /  15.4 °C 53.3 °F /  11.8 °C 30.31in /  1026.3hPa ESE 1.8mph /  2.9km/h 4mph /  6.4km/h 79% 0.00in /  0mm 452 W/m2
11:49 60.5 °F /  15.8 °C 53.9 °F /  12.2 °C 30.31in /  1026.3hPa SE 2mph /  3.2km/h 5mph /  8km/h 78.8% 0.00in /  0mm 457 W/m2
11:54 60.3 °F /  15.7 °C 53.5 °F /  11.9 °C 30.31in /  1026.3hPa SE 3.6mph /  5.8km/h 6mph /  9.7km/h 78% 0.00in /  0mm 371 W/m2
11:59 60.2 °F /  15.7 °C 53.7 °F /  12.1 °C 30.30in /  1026hPa SSE 3.6mph /  5.8km/h 7mph /  11.3km/h 79% 0.00in /  0mm 415 W/m2
12:04 60.6 °F /  15.9 °C 54.2 °F /  12.3 °C 30.30in /  1026hPa SSE 2.5mph /  4km/h 5mph /  8km/h 79% 0.00in /  0mm 439 W/m2
12:09 61.3 °F /  16.3 °C 54.6 °F /  12.6 °C 30.30in /  1026hPa South 4.1mph /  6.6km/h 7mph /  11.3km/h 78.4% 0.00in /  0mm 417 W/m2
12:14 61.3 °F /  16.3 °C 54.5 °F /  12.5 °C 30.30in /  1026hPa SSE 5.4mph /  8.7km/h 9mph /  14.5km/h 78% 0.00in /  0mm 427 W/m2
12:19 61.2 °F /  16.2 °C 54.4 °F /  12.4 °C 30.30in /  1026hPa South 3.4mph /  5.5km/h 9mph /  14.5km/h 78% 0.00in /  0mm 461 W/m2
12:24 61.6 °F /  16.4 °C 54.6 °F /  12.6 °C 30.29in /  1025.6hPa SSE 4.5mph /  7.2km/h 10mph /  16.1km/h 77.6% 0.00in /  0mm 504 W/m2
12:29 61.9 °F /  16.6 °C 54.7 °F /  12.6 °C 30.29in /  1025.6hPa SSE 5.6mph /  9km/h 12mph /  19.3km/h 77% 0.00in /  0mm 506 W/m2
12:34 62.1 °F /  16.7 °C 54.7 °F /  12.6 °C 30.29in /  1025.6hPa SE 6.4mph /  10.3km/h 10mph /  16.1km/h 76.8% 0.00in /  0mm 522 W/m2
12:39 62.2 °F /  16.8 °C 54.3 °F /  12.4 °C 30.29in /  1025.6hPa SE 4.6mph /  7.4km/h 11mph /  17.7km/h 75.6% 0.00in /  0mm 510 W/m2
12:44 62.4 °F /  16.9 °C 54.2 °F /  12.3 °C 30.29in /  1025.6hPa SE 6.6mph /  10.6km/h 11mph /  17.7km/h 74.8% 0.00in /  0mm 466 W/m2
12:49 62.3 °F /  16.8 °C 53.9 °F /  12.2 °C 30.29in /  1025.6hPa SE 5.7mph /  9.2km/h 11mph /  17.7km/h 74% 0.00in /  0mm 431 W/m2
12:54 62.4 °F /  16.9 °C 54 °F /  12.2 °C 30.29in /  1025.6hPa SSE 4.4mph /  7.1km/h 11mph /  17.7km/h 74% 0.00in /  0mm 241 W/m2
12:59 62.4 °F /  16.9 °C 54 °F /  12.2 °C 30.29in /  1025.6hPa SSE 3.5mph /  5.6km/h 7mph /  11.3km/h 74% 0.00in /  0mm 376 W/m2
13:04 62.8 °F /  17.1 °C 54.3 °F /  12.4 °C 30.29in /  1025.6hPa SE 4.1mph /  6.6km/h 9mph /  14.5km/h 74% 0.00in /  0mm 338 W/m2
13:09 62.6 °F /  17 °C 53.7 °F /  12.1 °C 30.28in /  1025.3hPa SSE 6.7mph /  10.8km/h 13mph /  20.9km/h 72.8% 0.00in /  0mm 338 W/m2
13:14 62.2 °F /  16.8 °C 53.6 °F /  12 °C 30.28in /  1025.3hPa SSE 3mph /  4.8km/h 11mph /  17.7km/h 73.4% 0.00in /  0mm 302 W/m2
13:19 62.4 °F /  16.9 °C 54 °F /  12.2 °C 30.28in /  1025.3hPa SE 3.3mph /  5.3km/h 8mph /  12.9km/h 74% 0.00in /  0mm 308 W/m2
13:24 62.6 °F /  17 °C 54 °F /  12.2 °C 30.28in /  1025.3hPa SSE 3.6mph /  5.8km/h 8mph /  12.9km/h 73.6% 0.00in /  0mm 301 W/m2
13:29 62.6 °F /  17 °C 54 °F /  12.2 °C 30.28in /  1025.3hPa SSE 3.7mph /  6km/h 7mph /  11.3km/h 73.6% 0.00in /  0mm 308 W/m2
13:34 62.9 °F /  17.2 °C 54.1 °F /  12.3 °C 30.27in /  1024.9hPa SSE 2.9mph /  4.7km/h 5mph /  8km/h 73.2% 0.00in /  0mm 341 W/m2
13:39 63.1 °F /  17.3 °C 54.2 °F /  12.3 °C 30.27in /  1024.9hPa SSE 6.9mph /  11.1km/h 9mph /  14.5km/h 72.6% 0.00in /  0mm 343 W/m2
13:44 63.2 °F /  17.3 °C 53.8 °F /  12.1 °C 30.27in /  1024.9hPa South 4.7mph /  7.6km/h 10mph /  16.1km/h 71.2% 0.00in /  0mm 316 W/m2
13:49 63.2 °F /  17.3 °C 53.7 °F /  12.1 °C 30.27in /  1024.9hPa SSE 4.9mph /  7.9km/h 9mph /  14.5km/h 71% 0.00in /  0mm 304 W/m2
13:54 63 °F /  17.2 °C 53.3 °F /  11.8 °C 30.27in /  1024.9hPa SSE 4.7mph /  7.6km/h 11mph /  17.7km/h 70.6% 0.00in /  0mm 304 W/m2
13:58 63 °F /  17.2 °C 53.4 °F /  11.9 °C 30.27in /  1024.9hPa SSE 4mph /  6.4km/h 8mph /  12.9km/h 71% 0.00in /  0mm 311 W/m2
14:04 63.1 °F /  17.3 °C 53.7 °F /  12.1 °C 30.27in /  1024.9hPa SSE 4mph /  6.4km/h 8mph /  12.9km/h 71.4% 0.00in /  0mm 320 W/m2
14:09 63.2 °F /  17.3 °C 53.7 °F /  12.1 °C 30.26in /  1024.6hPa SSE 3.7mph /  6km/h 9mph /  14.5km/h 71% 0.00in /  0mm 334 W/m2
14:14 63.6 °F /  17.6 °C 54 °F /  12.2 °C 30.26in /  1024.6hPa SSE 2.9mph /  4.7km/h 8mph /  12.9km/h 71% 0.00in /  0mm 315 W/m2
14:19 63.8 °F /  17.7 °C 54.1 °F /  12.3 °C 30.26in /  1024.6hPa SSE 5.6mph /  9km/h 10mph /  16.1km/h 70.8% 0.00in /  0mm 287 W/m2
14:24 63.3 °F /  17.4 °C 53.4 °F /  11.9 °C 30.26in /  1024.6hPa SE 6mph /  9.7km/h 10mph /  16.1km/h 70% 0.00in /  0mm 244 W/m2
14:29 63.1 °F /  17.3 °C 53.2 °F /  11.8 °C 30.26in /  1024.6hPa SE 5.7mph /  9.2km/h 10mph /  16.1km/h 70% 0.00in /  0mm 227 W/m2
14:34 63.1 °F /  17.3 °C 53.4 °F /  11.9 °C 30.26in /  1024.6hPa SE 3.8mph /  6.1km/h 9mph /  14.5km/h 70.6% 0.00in /  0mm 287 W/m2
14:39 63.3 °F /  17.4 °C 53.6 °F /  12 °C 30.26in /  1024.6hPa South 5.3mph /  8.5km/h 9mph /  14.5km/h 70.4% 0.00in /  0mm 318 W/m2
14:44 63.7 °F /  17.6 °C 53.8 °F /  12.1 °C 30.25in /  1024.3hPa SSE 4.8mph /  7.7km/h 9mph /  14.5km/h 70.2% 0.00in /  0mm 399 W/m2
14:49 63.8 °F /  17.7 °C 53.9 °F /  12.2 °C 30.25in /  1024.3hPa SSE 5.4mph /  8.7km/h 10mph /  16.1km/h 70% 0.00in /  0mm 381 W/m2
14:54 64 °F /  17.8 °C 53.8 °F /  12.1 °C 30.25in /  1024.3hPa SSE 5.2mph /  8.4km/h 10mph /  16.1km/h 69.4% 0.00in /  0mm 343 W/m2
14:59 64 °F /  17.8 °C 53.4 °F /  11.9 °C 30.24in /  1023.9hPa SSW 3.7mph /  6km/h 9mph /  14.5km/h 68.6% 0.00in /  0mm 350 W/m2
15:04 64.3 °F /  17.9 °C 53.5 °F /  11.9 °C 30.24in /  1023.9hPa SSW 4.7mph /  7.6km/h 9mph /  14.5km/h 68% 0.00in /  0mm 378 W/m2
15:09 64.5 °F /  18.1 °C 53.7 °F /  12.1 °C 30.24in /  1023.9hPa SSE 5mph /  8km/h 8mph /  12.9km/h 68% 0.00in /  0mm 410 W/m2
15:14 64.8 °F /  18.2 °C 54 °F /  12.2 °C 30.24in /  1023.9hPa South 4.6mph /  7.4km/h 9mph /  14.5km/h 68% 0.00in /  0mm 376 W/m2
15:19 64.7 °F /  18.2 °C 53.9 °F /  12.2 °C 30.24in /  1023.9hPa South 4.1mph /  6.6km/h 7mph /  11.3km/h 68% 0.00in /  0mm 302 W/m2
15:24 64.2 °F /  17.9 °C 53.4 °F /  11.9 °C 30.24in /  1023.9hPa SSE 5.6mph /  9km/h 11mph /  17.7km/h 68% 0.00in /  0mm 206 W/m2
15:29 63.9 °F /  17.7 °C 53.3 °F /  11.8 °C 30.24in /  1023.9hPa SE 4.9mph /  7.9km/h 12mph /  19.3km/h 68.8% 0.00in /  0mm 142 W/m2
15:34 63.7 °F /  17.6 °C 53.7 °F /  12.1 °C 30.24in /  1023.9hPa SE 3.6mph /  5.8km/h 10mph /  16.1km/h 69.8% 0.00in /  0mm 155 W/m2
15:39 63.7 °F /  17.6 °C 53.8 °F /  12.1 °C 30.24in /  1023.9hPa SSE 2.8mph /  4.5km/h 7mph /  11.3km/h 70% 0.00in /  0mm 221 W/m2
15:44 63.7 °F /  17.6 °C 54.1 °F /  12.3 °C 30.24in /  1023.9hPa SSE 3.5mph /  5.6km/h 8mph /  12.9km/h 71% 0.00in /  0mm 232 W/m2
15:49 63.7 °F /  17.6 °C 54.1 °F /  12.3 °C 30.23in /  1023.6hPa SSE 5.5mph /  8.9km/h 10mph /  16.1km/h 71% 0.00in /  0mm 327 W/m2
15:54 63.9 °F /  17.7 °C 54.2 °F /  12.3 °C 30.23in /  1023.6hPa SE 6.2mph /  10km/h 10mph /  16.1km/h 70.8% 0.00in /  0mm 313 W/m2
15:59 63.9 °F /  17.7 °C 54 °F /  12.2 °C 30.23in /  1023.6hPa SSE 6.5mph /  10.5km/h 13mph /  20.9km/h 70.2% 0.00in /  0mm 315 W/m2
16:04 64 °F /  17.8 °C 54.1 °F /  12.3 °C 30.23in /  1023.6hPa SE 7.5mph /  12.1km/h 13mph /  20.9km/h 70% 0.00in /  0mm 278 W/m2
16:09 63.8 °F /  17.7 °C 53.9 °F /  12.2 °C 30.23in /  1023.6hPa SSE 6mph /  9.7km/h 12mph /  19.3km/h 70% 0.00in /  0mm 264 W/m2
16:14 63.7 °F /  17.6 °C 53.8 °F /  12.1 °C 30.22in /  1023.2hPa SSE 5.8mph /  9.3km/h 11mph /  17.7km/h 70% 0.00in /  0mm 295 W/m2
16:19 63.8 °F /  17.7 °C 53.9 °F /  12.2 °C 30.22in /  1023.2hPa SSE 3.7mph /  6km/h 9mph /  14.5km/h 70% 0.00in /  0mm 304 W/m2
16:24 64.1 °F /  17.8 °C 54.2 °F /  12.3 °C 30.22in /  1023.2hPa SSE 5mph /  8km/h 8mph /  12.9km/h 70% 0.00in /  0mm 295 W/m2
16:29 64 °F /  17.8 °C 54.1 °F /  12.3 °C 30.22in /  1023.2hPa SSE 6.7mph /  10.8km/h 13mph /  20.9km/h 70% 0.00in /  0mm 211 W/m2
16:34 63.5 °F /  17.5 °C 53.9 °F /  12.2 °C 30.22in /  1023.2hPa SSE 6.4mph /  10.3km/h 10mph /  16.1km/h 71% 0.00in /  0mm 207 W/m2
16:39 63.3 °F /  17.4 °C 53.9 °F /  12.2 °C 30.22in /  1023.2hPa SSE 4.9mph /  7.9km/h 10mph /  16.1km/h 71.4% 0.00in /  0mm 167 W/m2
16:44 63.1 °F /  17.3 °C 54.1 °F /  12.3 °C 30.22in /  1023.2hPa SSE 5mph /  8km/h 10mph /  16.1km/h 72.4% 0.00in /  0mm 120 W/m2
16:49 63 °F /  17.2 °C 54.1 °F /  12.3 °C 30.21in /  1022.9hPa SSE 3.7mph /  6km/h 11mph /  17.7km/h 73% 0.00in /  0mm 98 W/m2
16:54 62.9 °F /  17.2 °C 54 °F /  12.2 °C 30.22in /  1023.2hPa SSE 4.2mph /  6.8km/h 9mph /  14.5km/h 73% 0.00in /  0mm 104 W/m2
16:59 62.9 °F /  17.2 °C 54.4 °F /  12.4 °C 30.21in /  1022.9hPa SSE 3.9mph /  6.3km/h 6mph /  9.7km/h 74% 0.00in /  0mm 134 W/m2
17:04 63 °F /  17.2 °C 54.5 °F /  12.5 °C 30.21in /  1022.9hPa South 3.3mph /  5.3km/h 9mph /  14.5km/h 74% 0.00in /  0mm 139 W/m2
17:09 63 °F /  17.2 °C 54.3 °F /  12.4 °C 30.21in /  1022.9hPa South 4mph /  6.4km/h 7mph /  11.3km/h 73.6% 0.00in /  0mm 114 W/m2
17:14 62.9 °F /  17.2 °C 54 °F /  12.2 °C 30.21in /  1022.9hPa SSE 4.4mph /  7.1km/h 7mph /  11.3km/h 73% 0.00in /  0mm 113 W/m2
17:19 62.8 °F /  17.1 °C 54.2 °F /  12.3 °C 30.21in /  1022.9hPa South 3.4mph /  5.5km/h 8mph /  12.9km/h 73.8% 0.00in /  0mm 105 W/m2
17:24 62.6 °F /  17 °C 54.1 °F /  12.3 °C 30.21in /  1022.9hPa South 3.1mph /  5km/h 6mph /  9.7km/h 74% 0.00in /  0mm 107 W/m2
17:29 62.5 °F /  16.9 °C 54.3 °F /  12.4 °C 30.21in /  1022.9hPa SSE 3.3mph /  5.3km/h 8mph /  12.9km/h 74.8% 0.00in /  0mm 98 W/m2
17:34 62.4 °F /  16.9 °C 54.4 °F /  12.4 °C 30.21in /  1022.9hPa SSE 5mph /  8km/h 7mph /  11.3km/h 75.2% 0.00in /  0mm 86 W/m2
17:39 62.2 °F /  16.8 °C 54.5 °F /  12.5 °C 30.21in /  1022.9hPa South 5.3mph /  8.5km/h 8mph /  12.9km/h 76% 0.00in /  0mm 72 W/m2
17:44 62.1 °F /  16.7 °C 54.6 °F /  12.6 °C 30.21in /  1022.9hPa SSE 2.5mph /  4km/h 7mph /  11.3km/h 76.8% 0.00in /  0mm 69 W/m2
17:49 62.1 °F /  16.7 °C 54.7 °F /  12.6 °C 30.21in /  1022.9hPa SSE 2.4mph /  3.9km/h 5mph /  8km/h 77% 0.00in /  0mm 53 W/m2
17:54 62.1 °F /  16.7 °C 54.7 °F /  12.6 °C 30.20in /  1022.6hPa South 3.2mph /  5.1km/h 7mph /  11.3km/h 77% 0.00in /  0mm 40 W/m2
17:59 62.1 °F /  16.7 °C 54.7 °F /  12.6 °C 30.20in /  1022.6hPa South 3mph /  4.8km/h 7mph /  11.3km/h 77% 0.00in /  0mm 30 W/m2
18:04 62.1 °F /  16.7 °C 54.9 °F /  12.7 °C 30.20in /  1022.6hPa South 1.7mph /  2.7km/h 4mph /  6.4km/h 77.6% 0.00in /  0mm 23 W/m2
18:09 62.1 °F /  16.7 °C 55 °F /  12.8 °C 30.20in /  1022.6hPa SSE 2.9mph /  4.7km/h 5mph /  8km/h 78% 0.00in /  0mm 16 W/m2
18:14 62.1 °F /  16.7 °C 55 °F /  12.8 °C 30.20in /  1022.6hPa SSE 3.1mph /  5km/h 8mph /  12.9km/h 78% 0.00in /  0mm 14 W/m2
18:19 61.9 °F /  16.6 °C 54.9 °F /  12.7 °C 30.20in /  1022.6hPa South 2.5mph /  4km/h 6mph /  9.7km/h 78% 0.00in /  0mm 11 W/m2
18:24 61.9 °F /  16.6 °C 54.9 °F /  12.7 °C 30.20in /  1022.6hPa SSE 3.2mph /  5.1km/h 7mph /  11.3km/h 78% 0.00in /  0mm 9 W/m2
18:29 61.9 °F /  16.6 °C 54.9 °F /  12.7 °C 30.20in /  1022.6hPa South 2.5mph /  4km/h 5mph /  8km/h 78% 0.00in /  0mm 9 W/m2
18:34 61.8 °F /  16.6 °C 55 °F /  12.8 °C 30.20in /  1022.6hPa South 1.5mph /  2.4km/h 4mph /  6.4km/h 78.6% 0.00in /  0mm 5 W/m2
18:39 61.7 °F /  16.5 °C 55 °F /  12.8 °C 30.20in /  1022.6hPa South 2.3mph /  3.7km/h 5mph /  8km/h 79% 0.00in /  0mm 0 W/m2
18:44 61.5 °F /  16.4 °C 54.9 °F /  12.7 °C 30.20in /  1022.6hPa SSE 4.4mph /  7.1km/h 9mph /  14.5km/h 79% 0.00in /  0mm 0 W/m2
18:49 61.5 °F /  16.4 °C 54.9 °F /  12.7 °C 30.20in /  1022.6hPa South 1.6mph /  2.6km/h 7mph /  11.3km/h 79% 0.00in /  0mm 0 W/m2
18:54 61.5 °F /  16.4 °C 54.9 °F /  12.7 °C 30.20in /  1022.6hPa South 3.7mph /  6km/h 7mph /  11.3km/h 79% 0.00in /  0mm 0 W/m2
18:59 61.3 °F /  16.3 °C 54.9 °F /  12.7 °C 30.20in /  1022.6hPa South 3.8mph /  6.1km/h 7mph /  11.3km/h 79.4% 0.00in /  0mm 0 W/m2
19:04 61.2 °F /  16.2 °C 54.9 °F /  12.7 °C 30.20in /  1022.6hPa South 5mph /  8km/h 8mph /  12.9km/h 80% 0.00in /  0mm 0 W/m2
19:09 61.2 °F /  16.2 °C 55.2 °F /  12.9 °C 30.20in /  1022.6hPa SSE 2.9mph /  4.7km/h 7mph /  11.3km/h 81% 0.00in /  0mm 0 W/m2
19:14 61 °F /  16.1 °C 55.1 °F /  12.8 °C 30.20in /  1022.6hPa South 2.8mph /  4.5km/h 7mph /  11.3km/h 81.4% 0.00in /  0mm 0 W/m2
19:19 60.5 °F /  15.8 °C 55.2 °F /  12.9 °C 30.20in /  1022.6hPa South 2mph /  3.2km/h 5mph /  8km/h 82.8% 0.00in /  0mm 0 W/m2
19:24 60.2 °F /  15.7 °C 55.4 °F /  13 °C 30.20in /  1022.6hPa South 2.8mph /  4.5km/h 6mph /  9.7km/h 84% 0.00in /  0mm 0 W/m2
19:29 59.8 °F /  15.4 °C 55.3 °F /  12.9 °C 30.20in /  1022.6hPa SW 2.1mph /  3.4km/h 7mph /  11.3km/h 85% 0.00in /  0mm 0 W/m2
19:34 59.6 °F /  15.3 °C 55.4 °F /  13 °C 30.20in /  1022.6hPa SW 3.2mph /  5.1km/h 7mph /  11.3km/h 85.8% 0.00in /  0mm 0 W/m2
19:39 59.5 °F /  15.3 °C 55.4 °F /  13 °C 30.20in /  1022.6hPa SSW 1.5mph /  2.4km/h 3mph /  4.8km/h 86% 0.00in /  0mm 0 W/m2
19:44 59.5 °F /  15.3 °C 55.4 °F /  13 °C 30.20in /  1022.6hPa SSW 1.3mph /  2.1km/h 3mph /  4.8km/h 86% 0.00in /  0mm 0 W/m2
19:49 59.5 °F /  15.3 °C 55.4 °F /  13 °C 30.19in /  1022.2hPa South 3.6mph /  5.8km/h 7mph /  11.3km/h 86.2% 0.00in /  0mm 0 W/m2
19:54 59.4 °F /  15.2 °C 55.4 °F /  13 °C 30.19in /  1022.2hPa SSW 3.1mph /  5km/h 7mph /  11.3km/h 87% 0.00in /  0mm 0 W/m2
19:59 59.4 °F /  15.2 °C 55.4 °F /  13 °C 30.19in /  1022.2hPa SSW 3.2mph /  5.1km/h 6mph /  9.7km/h 87% 0.00in /  0mm 0 W/m2
20:04 59.4 °F /  15.2 °C 55.4 °F /  13 °C 30.19in /  1022.2hPa SSW 2.5mph /  4km/h 6mph /  9.7km/h 87% 0.00in /  0mm 0 W/m2
20:09 59.4 °F /  15.2 °C 55.6 °F /  13.1 °C 30.19in /  1022.2hPa South 3.2mph /  5.1km/h 6mph /  9.7km/h 87.4% 0.00in /  0mm 0 W/m2
20:14 59.2 °F /  15.1 °C 55.6 °F /  13.1 °C 30.19in /  1022.2hPa South 4.4mph /  7.1km/h 7mph /  11.3km/h 88% 0.00in /  0mm 0 W/m2
20:19 59.2 °F /  15.1 °C 55.6 °F /  13.1 °C 30.19in /  1022.2hPa South 3mph /  4.8km/h 6mph /  9.7km/h 88% 0.00in /  0mm 0 W/m2
20:24 59 °F /  15 °C 55.4 °F /  13 °C 30.19in /  1022.2hPa South 2.9mph /  4.7km/h 7mph /  11.3km/h 88% 0.00in /  0mm 0 W/m2
20:29 58.8 °F /  14.9 °C 55.5 °F /  13.1 °C 30.19in /  1022.2hPa SSW 4mph /  6.4km/h 9mph /  14.5km/h 88.8% 0.00in /  0mm 0 W/m2
20:34 58.6 °F /  14.8 °C 55.4 °F /  13 °C 30.19in /  1022.2hPa SW 3.6mph /  5.8km/h 7mph /  11.3km/h 89% 0.00in /  0mm 0 W/m2
20:39 58.5 °F /  14.7 °C 55.2 °F /  12.9 °C 30.19in /  1022.2hPa SSW 4.1mph /  6.6km/h 6mph /  9.7km/h 89% 0.00in /  0mm 0 W/m2
20:44 58.5 °F /  14.7 °C 55.2 °F /  12.9 °C 30.19in /  1022.2hPa SW 2.8mph /  4.5km/h 7mph /  11.3km/h 89% 0.00in /  0mm 0 W/m2
20:49 58.5 °F /  14.7 °C 55.2 °F /  12.9 °C 30.19in /  1022.2hPa SW 3mph /  4.8km/h 5mph /  8km/h 89% 0.00in /  0mm 0 W/m2
20:54 58.5 °F /  14.7 °C 55.2 °F /  12.9 °C 30.19in /  1022.2hPa SW 1.3mph /  2.1km/h 4mph /  6.4km/h 89% 0.00in /  0mm 0 W/m2
20:59 58.5 °F /  14.7 °C 55.2 °F /  12.9 °C 30.19in /  1022.2hPa SW 0.2mph /  0.3km/h 3mph /  4.8km/h 89% 0.00in /  0mm 0 W/m2
21:04 58.5 °F /  14.7 °C 55.2 °F /  12.9 °C 30.18in /  1021.9hPa SW 0.2mph /  0.3km/h 1mph /  1.6km/h 89% 0.00in /  0mm 0 W/m2
21:09 58.6 °F /  14.8 °C 55.3 °F /  12.9 °C 30.18in /  1021.9hPa Calm     89% 0.00in /  0mm 0 W/m2
21:14 58.6 °F /  14.8 °C 55.4 °F /  13 °C 30.18in /  1021.9hPa Calm     89% 0.00in /  0mm 0 W/m2
21:19 58.6 °F /  14.8 °C 55.4 °F /  13 °C 30.18in /  1021.9hPa Calm     89% 0.00in /  0mm 0 W/m2
21:24 58.6 °F /  14.8 °C 55.4 °F /  13 °C 30.18in /  1021.9hPa Calm     89% 0.00in /  0mm 0 W/m2
21:29 58.6 °F /  14.8 °C 55.4 °F /  13 °C 30.18in /  1021.9hPa SW 0.8mph /  1.3km/h 3mph /  4.8km/h 89% 0.00in /  0mm 0 W/m2
21:34 58.6 °F /  14.8 °C 55.4 °F /  13 °C 30.18in /  1021.9hPa Calm   3mph /  4.8km/h 89% 0.00in /  0mm 0 W/m2
21:39 58.6 °F /  14.8 °C 55.4 °F /  13 °C 30.18in /  1021.9hPa SW 0.2mph /  0.3km/h 2mph /  3.2km/h 89% 0.00in /  0mm 0 W/m2
21:44 58.6 °F /  14.8 °C 55.4 °F /  13 °C 30.17in /  1021.6hPa SW 1.2mph /  1.9km/h 2mph /  3.2km/h 89% 0.00in /  0mm 0 W/m2
21:49 58.6 °F /  14.8 °C 55.4 °F /  13 °C 30.17in /  1021.6hPa Calm   2mph /  3.2km/h 89% 0.00in /  0mm 0 W/m2
21:54 58.6 °F /  14.8 °C 55.3 °F /  12.9 °C 30.17in /  1021.6hPa Calm   1mph /  1.6km/h 89% 0.00in /  0mm 0 W/m2
21:59 58.5 °F /  14.7 °C 55.2 °F /  12.9 °C 30.17in /  1021.6hPa SW 0.8mph /  1.3km/h 3mph /  4.8km/h 89% 0.00in /  0mm 0 W/m2
22:04 58.5 °F /  14.7 °C 55.2 °F /  12.9 °C 30.17in /  1021.6hPa SW 0.5mph /  0.8km/h 3mph /  4.8km/h 89% 0.00in /  0mm 0 W/m2
22:09 58.6 °F /  14.8 °C 55.4 °F /  13 °C 30.16in /  1021.2hPa SW 1.7mph /  2.7km/h 4mph /  6.4km/h 89% 0.00in /  0mm 0 W/m2
22:14 58.6 °F /  14.8 °C 55.1 °F /  12.8 °C 30.16in /  1021.2hPa South 1.3mph /  2.1km/h 5mph /  8km/h 88.2% 0.00in /  0mm 0 W/m2
22:19 58.8 °F /  14.9 °C 55.2 °F /  12.9 °C 30.16in /  1021.2hPa SE 2mph /  3.2km/h 5mph /  8km/h 88% 0.00in /  0mm 0 W/m2
22:24 58.8 °F /  14.9 °C 55.2 °F /  12.9 °C 30.16in /  1021.2hPa SSE 1.7mph /  2.7km/h 4mph /  6.4km/h 87.8% 0.00in /  0mm 0 W/m2
22:29 58.8 °F /  14.9 °C 55 °F /  12.8 °C 30.16in /  1021.2hPa SSE 0.9mph /  1.4km/h 3mph /  4.8km/h 87% 0.00in /  0mm 0 W/m2
22:34 59 °F /  15 °C 55.2 °F /  12.9 °C 30.15in /  1020.9hPa SSE 1.5mph /  2.4km/h 3mph /  4.8km/h 87% 0.00in /  0mm 0 W/m2
22:39 59 °F /  15 °C 55.2 °F /  12.9 °C 30.15in /  1020.9hPa SSE 2.4mph /  3.9km/h 4mph /  6.4km/h 87% 0.00in /  0mm 0 W/m2
22:44 59 °F /  15 °C 55.2 °F /  12.9 °C 30.15in /  1020.9hPa SSE 4.3mph /  6.9km/h 5mph /  8km/h 87% 0.00in /  0mm 0 W/m2
22:49 58.8 °F /  14.9 °C 55 °F /  12.8 °C 30.15in /  1020.9hPa SSE 0.9mph /  1.4km/h 5mph /  8km/h 87% 0.00in /  0mm 0 W/m2
22:54 58.8 °F /  14.9 °C 55 °F /  12.8 °C 30.15in /  1020.9hPa SSE 0.5mph /  0.8km/h 2mph /  3.2km/h 87% 0.00in /  0mm 0 W/m2
22:59 58.6 °F /  14.8 °C 54.9 °F /  12.7 °C 30.15in /  1020.9hPa SSE 0.4mph /  0.6km/h 3mph /  4.8km/h 87% 0.00in /  0mm 0 W/m2
23:04 58.5 °F /  14.7 °C 54.7 °F /  12.6 °C 30.14in /  1020.5hPa SSE 0.8mph /  1.3km/h 3mph /  4.8km/h 87% 0.00in /  0mm 0 W/m2
23:09 58.4 °F /  14.7 °C 54.6 °F /  12.6 °C 30.14in /  1020.5hPa SSE 1.3mph /  2.1km/h 3mph /  4.8km/h 87% 0.00in /  0mm 0 W/m2
23:14 58.3 °F /  14.6 °C 54.6 °F /  12.6 °C 30.14in /  1020.5hPa SSE 0.4mph /  0.6km/h 3mph /  4.8km/h 87.6% 0.00in /  0mm 0 W/m2
23:18 58 °F /  14.4 °C 54.2 °F /  12.3 °C 30.14in /  1020.5hPa SSE 0.7mph /  1.1km/h 3mph /  4.8km/h 87.3% 0.00in /  0mm 0 W/m2
23:24 57.7 °F /  14.3 °C 54.1 °F /  12.3 °C 30.14in /  1020.5hPa SSE 1.6mph /  2.6km/h 2mph /  3.2km/h 88% 0.00in /  0mm 0 W/m2
23:29 57.6 °F /  14.2 °C 54 °F /  12.2 °C 30.14in /  1020.5hPa SSE 1.7mph /  2.7km/h 3mph /  4.8km/h 88% 0.00in /  0mm 0 W/m2
23:34 57.4 °F /  14.1 °C 53.8 °F /  12.1 °C 30.14in /  1020.5hPa SSE 1.8mph /  2.9km/h 3mph /  4.8km/h 88% 0.00in /  0mm 0 W/m2
23:39 57.1 °F /  13.9 °C 53.5 °F /  11.9 °C 30.14in /  1020.5hPa SSE 1.5mph /  2.4km/h 3mph /  4.8km/h 88% 0.00in /  0mm 0 W/m2
23:44 56.9 °F /  13.8 °C 53.5 °F /  11.9 °C 30.13in /  1020.2hPa SSE 1.4mph /  2.3km/h 3mph /  4.8km/h 88.4% 0.00in /  0mm 0 W/m2
23:49 56.8 °F /  13.8 °C 53.4 °F /  11.9 °C 30.13in /  1020.2hPa Calm   2mph /  3.2km/h 88.4% 0.00in /  0mm 0 W/m2
23:54 56.7 °F /  13.7 °C 53.4 °F /  11.9 °C 30.13in /  1020.2hPa SSE 0.4mph /  0.6km/h 2mph /  3.2km/h 89% 0.00in /  0mm 0 W/m2
23:59 56.8 °F /  13.8 °C 53.5 °F /  11.9 °C 30.14in /  1020.5hPa SSE 0.4mph /  0.6km/h 3mph /  4.8km/h 89% 0.00in /  0mm 0 W/m2
Bath Spa Weather
Compliments of Weather Underground - 2 mb